Time;durP1;ratioP1;P1;durP2;ratioP2;P2;SDS_P1;SDS_P2;PMS_P1;PMS_P2;Temp;Humidity;BMP_temperature;BMP_pressure;BME280_temperature;BME280_humidity;BME280_pressure;Samples;Min_cycle;Max_cycle;Signal;HPM_P1;HPM_P2
2022/02/03 00:03:22;;;;;;;20.00;7.68;;;;;;;3.83;76.80;100909.72;8604293;33;20527;-76
2022/02/03 00:08:36;;;;;;;27.58;8.32;;;;;;;3.72;78.43;100904.88;8603496;33;20186;-75
2022/02/03 00:24:34;;;;;;;15.18;8.30;;;;;;;3.49;81.89;100871.34;8602966;33;21587;-75
2022/02/03 00:29:55;;;;;;;17.80;8.55;;;;;;;3.40;82.85;100877.03;8600337;33;20684;-76
2022/02/03 00:35:22;;;;;;;22.42;9.25;;;;;;;3.47;83.61;100876.72;8610985;33;20127;-77
2022/02/03 00:51:14;;;;;;;28.75;11.98;;;;;;;3.50;85.72;100852.69;8608748;33;20468;-77
2022/02/03 00:56:23;;;;;;;29.52;12.45;;;;;;;3.63;85.96;100841.53;8586953;33;20205;-76
2022/02/03 01:01:31;;;;;;;32.08;13.80;;;;;;;3.71;86.20;100845.56;8611097;33;20414;-77
2022/02/03 01:06:42;;;;;;;27.55;12.90;;;;;;;3.63;86.66;100845.03;8613837;33;20305;-77
2022/02/03 01:11:50;;;;;;;32.35;13.50;;;;;;;3.72;86.84;100838.44;8613157;33;20416;-76
2022/02/03 01:17:22;;;;;;;28.58;13.15;;;;;;;3.73;87.49;100825.09;8607411;33;20209;-75
2022/02/03 01:44:06;;;;;;;34.25;14.45;;;;;;;3.93;88.58;100818.84;8652543;33;20462;-76
2022/02/03 01:49:16;;;;;;;31.95;14.05;;;;;;;4.01;88.85;100796.38;8626164;33;20480;-78
2022/02/03 01:54:28;;;;;;;30.63;13.63;;;;;;;4.01;89.38;100797.25;8579736;33;20462;-77
2022/02/03 01:59:32;;;;;;;29.92;14.48;;;;;;;4.18;89.57;100791.97;8602636;33;21063;-77
2022/02/03 02:04:57;;;;;;;33.97;14.82;;;;;;;4.31;88.99;100776.28;8607656;33;20386;-78
2022/02/03 02:10:25;;;;;;;26.73;11.25;;;;;;;4.30;89.66;100782.53;8609226;33;20529;-77
2022/02/03 02:37:21;;;;;;;24.38;10.30;;;;;;;4.54;89.79;100739.72;8606366;33;20421;-76
2022/02/03 02:42:35;;;;;;;18.63;10.07;;;;;;;4.59;89.86;100738.53;8605143;33;20578;-76
2022/02/03 02:47:54;;;;;;;19.58;9.23;;;;;;;4.67;89.59;100726.66;8605034;33;20231;-78
2022/02/03 02:53:15;;;;;;;25.20;11.30;;;;;;;4.70;89.34;100731.81;8606726;33;21024;-76
2022/02/03 02:58:40;;;;;;;26.45;10.85;;;;;;;4.70;89.84;100715.84;8603190;33;20290;-77
2022/02/03 03:04:24;;;;;;;26.60;10.88;;;;;;;4.77;89.58;100703.94;8581018;33;20561;-76
2022/02/03 03:31:23;;;;;;;27.95;11.15;;;;;;;4.81;90.87;100686.88;8578949;33;20143;-77
2022/02/03 03:36:28;;;;;;;26.00;12.63;;;;;;;5.11;90.03;100686.25;8600449;33;20180;-77
2022/02/03 03:41:35;;;;;;;32.30;14.32;;;;;;;5.16;90.18;100676.19;8599493;33;20511;-76
2022/02/03 03:46:41;;;;;;;34.95;15.25;;;;;;;5.19;91.02;100679.56;8601901;33;20476;-77
2022/02/03 03:51:51;;;;;;;37.78;14.07;;;;;;;5.15;91.08;100672.66;8601375;33;20506;-77
2022/02/03 03:57:10;;;;;;;50.17;18.48;;;;;;;5.26;91.46;100667.59;8606382;33;20410;-79
2022/02/03 04:31:07;;;;;;;34.42;15.07;;;;;;;5.49;91.59;100650.38;8605470;33;20417;-75
2022/02/03 04:37:06;;;;;;;42.15;17.95;;;;;;;5.61;91.50;100640.81;8604647;33;20458;-75
2022/02/03 04:42:48;;;;;;;38.05;17.67;;;;;;;5.78;90.74;100641.69;8605186;33;21342;-77
2022/02/03 05:05:43;;;;;;;46.28;18.27;;;;;;;5.87;91.32;100617.16;8740714;33;20268;-76
2022/02/03 05:11:19;;;;;;;43.28;18.13;;;;;;;5.77;92.50;100606.16;8740826;33;20186;-77
2022/02/03 05:17:01;;;;;;;47.75;20.92;;;;;;;6.11;91.25;100599.72;8740871;33;20711;-76
2022/02/03 05:45:57;;;;;;;65.00;27.17;;;;;;;6.18;92.65;100570.88;8741892;33;20675;-77
2022/02/03 06:07:40;;;;;;;70.03;28.02;;;;;;;6.48;91.84;100560.16;8655920;33;20168;-76
2022/02/03 06:13:07;;;;;;;63.55;26.27;;;;;;;6.55;91.58;100547.28;8720786;33;20881;-76
2022/02/03 06:23:45;;;;;;;67.80;26.13;;;;;;;6.35;92.41;100537.84;8719769;33;20241;-76
2022/02/03 06:28:48;;;;;;;67.43;28.50;;;;;;;6.53;91.91;100538.53;8719376;33;20991;-74
2022/02/03 06:33:51;;;;;;;64.65;26.73;;;;;;;6.13;93.38;100528.47;8719407;33;20868;-76
2022/02/03 06:38:56;;;;;;;60.08;23.45;;;;;;;6.45;92.42;100536.34;8718639;33;20144;-75
2022/02/03 06:43:59;;;;;;;59.90;25.35;;;;;;;6.61;92.13;100538.94;8719415;33;20257;-76
2022/02/03 06:49:12;;;;;;;54.47;22.65;;;;;;;6.39;92.45;100534.91;8716876;33;20144;-75
2022/02/03 06:54:23;;;;;;;61.97;24.80;;;;;;;6.53;92.31;100547.41;8718795;33;20629;-77
2022/02/03 06:59:35;;;;;;;65.10;26.45;;;;;;;6.37;93.17;100560.81;8717431;33;20821;-75
2022/02/03 07:04:43;;;;;;;69.07;29.15;;;;;;;6.38;93.07;100548.34;8718635;33;20124;-77
2022/02/03 07:09:50;;;;;;;74.03;28.02;;;;;;;6.32;93.38;100544.22;8718349;33;20532;-76
2022/02/03 07:14:54;;;;;;;72.78;28.45;;;;;;;6.55;92.30;100532.13;8719607;33;20214;-77
2022/02/03 07:20:01;;;;;;;72.85;30.17;;;;;;;6.43;92.72;100532.03;8715119;33;20198;-76
2022/02/03 07:25:06;;;;;;;61.70;26.13;;;;;;;6.55;92.56;100523.28;8718438;33;20520;-76
2022/02/03 07:30:11;;;;;;;61.53;25.67;;;;;;;6.57;92.60;100516.03;8718147;33;20506;-75
2022/02/03 07:35:14;;;;;;;55.05;23.48;;;;;;;6.61;91.91;100533.59;8717989;33;20187;-75
2022/02/03 07:40:19;;;;;;;44.85;19.80;;;;;;;6.32;92.69;100533.56;8717152;33;20229;-75
2022/02/03 07:45:22;;;;;;;45.08;20.30;;;;;;;6.28;93.07;100534.72;8718015;33;20426;-76
2022/02/03 07:50:26;;;;;;;51.03;21.90;;;;;;;6.37;92.49;100528.81;8715236;33;20171;-76
2022/02/03 07:55:30;;;;;;;43.63;21.05;;;;;;;6.11;95.24;100533.03;8716245;33;20642;-75
2022/02/03 08:00:33;;;;;;;50.28;21.48;;;;;;;6.01;94.69;100523.03;8716355;32;20253;-76
2022/02/03 08:05:51;;;;;;;49.67;21.00;;;;;;;6.11;92.90;100529.50;8716998;33;20175;-76
2022/02/03 08:10:59;;;;;;;33.35;13.77;;;;;;;5.90;93.66;100534.34;8715897;33;20345;-76
2022/02/03 08:16:08;;;;;;;41.05;18.23;;;;;;;6.12;93.16;100526.75;8716762;32;20184;-76
2022/02/03 08:21:14;;;;;;;38.30;16.45;;;;;;;5.82;93.28;100500.13;8715656;32;20395;-76
2022/02/03 08:26:27;;;;;;;39.33;17.58;;;;;;;6.05;92.16;100493.41;8717214;33;20239;-76
2022/02/03 08:31:40;;;;;;;32.17;13.82;;;;;;;5.60;92.24;100499.69;8716758;33;20124;-76
2022/02/03 08:36:42;;;;;;;34.42;14.30;;;;;;;5.58;91.91;100512.22;8715040;33;20681;-76
2022/02/03 08:41:47;;;;;;;24.55;11.70;;;;;;;5.93;90.58;100507.50;8714763;32;20156;-75
2022/02/03 08:46:50;;;;;;;40.60;18.92;;;;;;;5.74;90.84;100499.72;8716016;32;20184;-75
2022/02/03 08:51:55;;;;;;;47.42;19.60;;;;;;;5.84;89.53;100500.91;8715601;32;21725;-76
2022/02/03 08:57:08;;;;;;;33.85;13.45;;;;;;;5.56;89.83;100490.97;8716847;32;20187;-75
2022/02/03 09:51:16;;;;;;;20.55;9.65;;;;;;;5.90;84.14;100494.34;8719863;32;20195;-74
2022/02/03 09:56:24;;;;;;;23.83;11.10;;;;;;;6.14;83.88;100478.66;8719630;32;20184;-76
2022/02/03 10:01:35;;;;;;;22.40;11.07;;;;;;;6.12;83.35;100470.75;8719590;33;20257;-78
2022/02/03 10:06:50;;;;;;;23.13;10.80;;;;;;;6.22;83.32;100471.03;8720510;32;20926;-76
2022/02/03 10:11:59;;;;;;;23.50;12.65;;;;;;;6.17;83.17;100462.44;8720448;32;20355;-76
2022/02/03 10:17:05;;;;;;;22.77;10.55;;;;;;;6.14;83.11;100468.88;8719703;32;20435;-75
2022/02/03 10:22:18;;;;;;;20.08;10.38;;;;;;;6.20;83.21;100461.41;8719852;32;20286;-76
2022/02/03 10:27:28;;;;;;;19.02;10.85;;;;;;;6.62;82.67;100453.41;8723631;32;20558;-76
2022/02/03 10:32:39;;;;;;;29.38;12.05;;;;;;;6.26;82.94;100451.22;8722297;32;20218;-76
2022/02/03 10:37:47;;;;;;;22.10;11.60;;;;;;;6.25;83.66;100437.97;8725061;32;20160;-77
2022/02/03 10:49:01;;;;;;;33.78;13.88;;;;;;;6.07;85.61;100446.16;8687524;32;20188;-77
2022/02/03 10:54:22;;;;;;;35.08;16.13;;;;;;;6.05;85.51;100429.41;8719387;32;20574;-76
2022/02/03 11:05:12;;;;;;;30.20;15.10;;;;;;;6.10;85.90;100415.78;8718391;33;20645;-74
2022/02/03 11:10:28;;;;;;;28.60;13.38;;;;;;;6.21;86.80;100415.97;8720222;33;20232;-77
2022/02/03 11:15:34;;;;;;;28.55;15.48;;;;;;;6.30;87.00;100404.72;8718742;33;20604;-76
2022/02/03 11:20:41;;;;;;;28.40;15.45;;;;;;;6.14;87.53;100379.97;8728112;33;20440;-77
2022/02/03 11:26:01;;;;;;;29.52;13.55;;;;;;;6.32;87.25;100381.47;8716649;33;20144;-76
2022/02/03 11:31:35;;;;;;;28.27;14.00;;;;;;;6.37;86.91;100387.38;8717247;33;20194;-76
2022/02/03 11:37:05;;;;;;;23.42;12.80;;;;;;;6.22;87.76;100374.16;8709432;33;20187;-75
2022/02/03 11:42:51;;;;;;;26.50;12.02;;;;;;;6.16;87.44;100368.25;8715770;32;20184;-76
2022/02/03 11:54:17;;;;;;;22.02;11.23;;;;;;;6.04;87.96;100353.03;8659394;33;20144;-75
2022/02/03 12:00:12;;;;;;;26.17;13.80;;;;;;;5.72;90.00;100365.69;8658276;33;20570;-77
2022/02/03 12:11:17;;;;;;;27.73;13.63;;;;;;;5.96;89.56;100336.66;8630145;33;21260;-77
2022/02/03 12:16:27;;;;;;;20.95;9.27;;;;;;;5.43;91.86;100347.00;8659227;33;20227;-74
2022/02/03 12:21:43;;;;;;;20.02;10.57;;;;;;;5.53;92.20;100333.94;8658516;33;20206;-75
2022/02/03 12:26:54;;;;;;;12.23;7.72;;;;;;;5.40;91.73;100331.19;8659194;33;20622;-75
2022/02/03 12:32:09;;;;;;;17.15;10.80;;;;;;;5.25;91.85;100326.78;8658729;33;20196;-76
2022/02/03 12:37:23;;;;;;;19.52;11.48;;;;;;;5.33;90.99;100321.00;8658039;33;20284;-76
2022/02/03 12:42:52;;;;;;;24.02;11.82;;;;;;;5.20;91.44;100311.06;8658131;33;20184;-76
2022/02/03 12:47:58;;;;;;;24.58;13.63;;;;;;;5.39;89.83;100293.97;8658187;33;20471;-76
2022/02/03 12:53:04;;;;;;;21.92;11.05;;;;;;;5.45;89.23;100296.25;8657917;33;20145;-76
2022/02/03 12:58:16;;;;;;;26.65;14.63;;;;;;;5.49;88.56;100274.69;8657941;33;20459;-76
2022/02/03 13:03:20;;;;;;;23.88;13.90;;;;;;;5.85;87.61;100256.50;8658468;33;20254;-75
2022/02/03 13:08:36;;;;;;;32.50;14.25;;;;;;;5.43;88.46;100255.53;8657619;33;20185;-75
2022/02/03 13:13:53;;;;;;;27.33;14.43;;;;;;;5.43;87.63;100256.41;8657479;33;20180;-77
2022/02/03 13:19:09;;;;;;;24.27;13.65;;;;;;;5.43;87.84;100240.44;8660062;33;20929;-77
2022/02/03 13:24:34;;;;;;;25.85;14.60;;;;;;;5.68;87.78;100222.91;8661894;33;20181;-75
2022/02/03 13:29:53;;;;;;;31.15;15.95;;;;;;;5.73;86.89;100207.47;8662318;33;20246;-76
2022/02/03 13:35:01;;;;;;;24.40;10.50;;;;;;;5.81;85.60;100221.16;8662171;33;20858;-76
2022/02/03 13:40:10;;;;;;;30.17;15.23;;;;;;;5.80;85.40;100214.13;8661855;33;20141;-76
2022/02/03 13:45:18;;;;;;;16.88;11.00;;;;;;;5.92;84.95;100217.81;8662186;33;20384;-76
2022/02/03 13:50:26;;;;;;;27.38;14.80;;;;;;;5.77;85.60;100206.31;8661918;33;20184;-78
2022/02/03 14:28:11;;;;;;;21.00;10.82;;;;;;;5.85;82.54;100171.19;8664837;33;20164;-78
2022/02/03 14:33:17;;;;;;;26.02;13.80;;;;;;;6.27;81.86;100167.50;8666349;33;20246;-78
2022/02/03 14:38:25;;;;;;;26.27;12.88;;;;;;;6.25;81.00;100177.41;8667112;33;20153;-78
2022/02/03 14:43:33;;;;;;;22.50;13.73;;;;;;;6.26;80.67;100163.13;8660606;33;20609;-77
2022/02/03 14:48:58;;;;;;;18.48;10.60;;;;;;;6.06;80.50;100160.91;8665851;33;20183;-78
2022/02/03 14:58:00;;;;;;;27.08;13.70;;;;;;;6.16;80.82;100160.19;8669948;33;20465;-76
2022/02/03 14:59:33;;;;;;;27.83;14.07;;;;;;;5.83;80.99;100165.09;8719612;32;20183;-77
2022/02/03 15:04:40;;;;;;;24.77;13.95;;;;;;;5.70;81.33;100157.03;8721714;33;21336;-77
2022/02/03 15:10:16;;;;;;;20.58;11.82;;;;;;;5.44;81.24;100146.22;8720418;33;20239;-77
2022/02/03 15:15:19;;;;;;;21.75;12.30;;;;;;;5.62;81.81;100154.88;8721130;33;20209;-77
2022/02/03 15:20:24;;;;;;;24.60;12.80;;;;;;;5.70;81.97;100138.34;8722925;33;20187;-77
2022/02/03 15:25:28;;;;;;;24.15;12.90;;;;;;;5.84;81.76;100138.34;8733978;33;20183;-77
2022/02/03 15:30:31;;;;;;;19.30;11.55;;;;;;;5.73;81.70;100130.16;8719458;33;20286;-77
2022/02/03 15:35:39;;;;;;;26.45;12.80;;;;;;;5.39;81.44;100145.66;8718979;33;20524;-76
2022/02/03 15:40:43;;;;;;;17.80;11.32;;;;;;;5.43;81.23;100144.53;8718292;33;21061;-78
2022/02/03 15:45:50;;;;;;;20.88;12.15;;;;;;;5.03;82.14;100140.84;8717783;33;20240;-78
2022/02/03 15:51:09;;;;;;;25.83;10.90;;;;;;;5.04;81.96;100129.22;8715359;33;20213;-78
2022/02/03 15:56:32;;;;;;;22.27;10.95;;;;;;;5.06;81.91;100128.19;8718039;33;20246;-75
2022/02/03 16:02:05;;;;;;;26.90;13.50;;;;;;;5.29;81.44;100139.19;8723045;33;20203;-77
2022/02/03 16:17:53;;;;;;;19.85;9.80;;;;;;;5.25;81.71;100143.00;8720720;33;20799;-77
2022/02/03 16:23:06;;;;;;;20.88;12.23;;;;;;;5.28;81.65;100132.16;8723017;33;20220;-77
2022/02/03 16:55:11;;;;;;;22.13;10.82;;;;;;;5.06;83.43;100106.88;8718554;33;20225;-78
2022/02/03 17:00:17;;;;;;;16.55;9.93;;;;;;;4.99;83.25;100108.22;8723340;33;21248;-78
2022/02/03 17:05:40;;;;;;;18.98;9.30;;;;;;;5.16;82.51;100108.97;8740700;33;20183;-76
2022/02/03 17:10:44;;;;;;;19.42;11.02;;;;;;;5.11;82.54;100100.44;8730886;33;20201;-77
2022/02/03 17:15:47;;;;;;;24.17;11.35;;;;;;;5.16;81.92;100103.66;8732368;33;20747;-77
2022/02/03 17:20:50;;;;;;;20.30;11.38;;;;;;;5.16;81.66;100106.31;8719715;33;20708;-76
2022/02/03 17:26:06;;;;;;;21.13;10.88;;;;;;;5.03;81.91;100106.22;8718226;33;20148;-77
2022/02/03 17:31:20;;;;;;;17.13;9.52;;;;;;;5.18;81.46;100112.38;8717230;33;20288;-77
2022/02/03 17:53:07;;;;;;;18.95;10.25;;;;;;;4.97;83.24;100103.91;8714846;33;20179;-77
2022/02/03 18:04:00;;;;;;;19.33;11.57;;;;;;;5.06;82.82;100114.00;8715753;33;20175;-77
2022/02/03 18:09:08;;;;;;;15.85;10.80;;;;;;;4.96;82.46;100115.50;8720565;33;20640;-77
2022/02/03 18:19:52;;;;;;;18.27;10.43;;;;;;;4.92;83.10;100125.50;8719993;33;20230;-75
2022/02/03 18:30:21;;;;;;;15.05;8.68;;;;;;;4.61;85.05;100107.88;8721151;33;21509;-77
2022/02/03 18:47:01;;;;;;;20.35;9.60;;;;;;;4.54;86.12;100117.19;8695155;33;21135;-77
2022/02/03 18:52:02;;;;;;;26.52;12.75;;;;;;;4.53;86.63;100105.69;8715950;32;20173;-77
2022/02/03 18:57:18;;;;;;;23.70;12.95;;;;;;;4.44;86.94;100111.53;8714679;32;20465;-76
2022/02/03 19:02:57;;;;;;;23.95;13.02;;;;;;;4.47;86.72;100095.41;8714218;32;20472;-77
2022/02/03 19:24:25;;;;;;;24.15;13.95;;;;;;;4.61;86.01;100081.28;8694347;32;21387;-76
2022/02/03 20:07:15;;;;;;;30.85;16.33;;;;;;;4.48;86.89;100064.34;8707717;32;20274;-77
2022/02/03 20:12:18;;;;;;;27.10;12.07;;;;;;;4.38;86.88;100072.88;8717884;33;20191;-77
2022/02/03 20:17:22;;;;;;;37.05;17.55;;;;;;;4.32;87.82;100067.94;8714629;33;20202;-77
2022/02/03 20:22:31;;;;;;;38.03;17.70;;;;;;;4.47;86.79;100071.47;8717318;32;20132;-75
2022/02/03 20:27:34;;;;;;;32.50;14.82;;;;;;;4.28;88.02;100073.50;8712812;32;20548;-77
2022/02/03 20:32:37;;;;;;;34.83;17.35;;;;;;;4.29;88.46;100068.13;8716713;32;20455;-77
2022/02/03 20:37:42;;;;;;;40.28;18.00;;;;;;;4.33;88.00;100074.09;8710712;32;20160;-77
2022/02/03 20:42:45;;;;;;;38.20;19.00;;;;;;;4.48;87.56;100062.53;8714682;33;20286;-77
2022/02/03 20:47:48;;;;;;;35.97;18.60;;;;;;;4.37;87.81;100078.28;8715397;33;20653;-75
2022/02/03 20:52:53;;;;;;;38.95;19.60;;;;;;;4.25;88.93;100081.69;8715164;33;20276;-77
2022/02/03 20:57:56;;;;;;;39.10;20.17;;;;;;;4.56;87.58;100072.72;8716334;33;20629;-76
2022/02/03 21:03:04;;;;;;;44.47;20.33;;;;;;;4.48;87.54;100075.84;8719920;32;20178;-78
2022/02/03 21:08:08;;;;;;;35.30;18.75;;;;;;;4.38;87.13;100064.88;8717437;32;20187;-77
2022/02/03 21:13:11;;;;;;;42.45;21.95;;;;;;;4.24;88.25;100083.47;8719619;32;21038;-76
2022/02/03 21:18:16;;;;;;;46.33;20.77;;;;;;;4.42;87.27;100089.53;8719111;33;20961;-77
2022/02/03 21:23:21;;;;;;;47.33;21.58;;;;;;;4.47;87.33;100076.81;8715026;32;20683;-77
2022/02/03 21:28:28;;;;;;;32.10;16.83;;;;;;;4.43;87.06;100067.28;8733099;32;20556;-76
2022/02/03 21:33:34;;;;;;;50.35;21.08;;;;;;;4.43;86.89;100066.44;8721558;32;20183;-77
2022/02/03 21:38:41;;;;;;;42.28;20.40;;;;;;;4.54;87.38;100063.97;8729212;32;20244;-78
2022/02/03 21:43:45;;;;;;;47.22;22.70;;;;;;;4.48;87.65;100067.88;8732562;32;20270;-77
2022/02/03 21:48:49;;;;;;;46.33;21.73;;;;;;;4.73;86.68;100067.22;8718970;33;20242;-77
2022/02/03 21:53:55;;;;;;;47.47;21.70;;;;;;;4.50;87.32;100073.94;8717321;33;20232;-76
2022/02/03 21:59:01;;;;;;;49.50;25.00;;;;;;;4.55;87.26;100063.91;8721697;33;20256;-77
2022/02/03 22:04:06;;;;;;;50.95;22.30;;;;;;;4.65;87.39;100063.31;8721306;32;20172;-78
2022/02/03 22:09:11;;;;;;;45.50;22.30;;;;;;;4.48;87.74;100049.25;8718460;33;20661;-77
2022/02/03 22:14:14;;;;;;;42.10;19.67;;;;;;;4.34;88.13;100058.06;8720450;33;20148;-77
2022/02/03 22:19:17;;;;;;;47.30;22.05;;;;;;;4.39;87.76;100048.00;8717521;32;20196;-77
2022/02/03 22:24:29;;;;;;;31.95;14.23;;;;;;;4.36;87.48;100045.53;8718875;32;20148;-78
2022/02/03 22:45:56;;;;;;;52.08;21.48;;;;;;;4.68;86.81;100056.00;8718215;32;20179;-77
2022/02/03 22:51:03;;;;;;;35.97;17.45;;;;;;;4.32;87.58;100054.63;8715907;32;20191;-77
2022/02/03 22:56:10;;;;;;;49.67;22.52;;;;;;;4.49;87.30;100056.25;8718540;32;20205;-77
2022/02/03 23:01:15;;;;;;;43.25;19.98;;;;;;;4.59;86.72;100061.88;8711044;32;21111;-76
2022/02/03 23:06:19;;;;;;;46.42;19.42;;;;;;;4.49;87.32;100063.38;8716819;32;20249;-77
2022/02/03 23:11:37;;;;;;;41.83;19.73;;;;;;;4.47;87.35;100049.31;8718989;32;20166;-77
2022/02/03 23:16:46;;;;;;;48.15;22.83;;;;;;;4.42;87.67;100057.59;8719715;32;20198;-77
2022/02/03 23:21:52;;;;;;;37.25;15.57;;;;;;;4.32;88.41;100051.97;8718770;32;20849;-76
2022/02/03 23:27:10;;;;;;;52.88;22.50;;;;;;;4.33;88.83;100052.81;8726439;32;20597;-77
2022/02/03 23:32:14;;;;;;;56.33;25.00;;;;;;;4.66;87.57;100049.91;8724387;32;20209;-77
2022/02/03 23:37:17;;;;;;;53.22;25.23;;;;;;;4.57;87.58;100038.03;8721844;33;20570;-76
